sensor_id;sensor_type;location;lat;lon;timestamp;P1;durP1;ratioP1;P2;durP2;ratioP2
19617;SDS011;9956;51.006;13.670;2023-05-29T00:04:15;10.20;;;7.15;;
19617;SDS011;9956;51.006;13.670;2023-05-29T00:09:16;7.53;;;6.78;;
19617;SDS011;9956;51.006;13.670;2023-05-29T00:14:16;10.02;;;6.93;;
19617;SDS011;9956;51.006;13.670;2023-05-29T00:19:19;8.35;;;6.80;;
19617;SDS011;9956;51.006;13.670;2023-05-29T00:24:19;10.60;;;6.78;;
19617;SDS011;9956;51.006;13.670;2023-05-29T00:29:20;10.10;;;6.10;;
19617;SDS011;9956;51.006;13.670;2023-05-29T00:34:22;7.82;;;6.57;;
19617;SDS011;9956;51.006;13.670;2023-05-29T00:39:25;9.93;;;6.60;;
19617;SDS011;9956;51.006;13.670;2023-05-29T00:44:26;8.52;;;6.85;;
19617;SDS011;9956;51.006;13.670;2023-05-29T00:49:26;9.30;;;6.82;;
19617;SDS011;9956;51.006;13.670;2023-05-29T00:54:28;7.50;;;6.05;;
19617;SDS011;9956;51.006;13.670;2023-05-29T00:59:30;8.55;;;6.50;;
19617;SDS011;9956;51.006;13.670;2023-05-29T01:04:32;11.07;;;7.10;;
19617;SDS011;9956;51.006;13.670;2023-05-29T01:09:38;8.00;;;6.85;;
19617;SDS011;9956;51.006;13.670;2023-05-29T01:30:39;11.00;;;8.82;;
19617;SDS011;9956;51.006;13.670;2023-05-29T01:35:41;13.45;;;10.85;;
19617;SDS011;9956;51.006;13.670;2023-05-29T01:40:42;12.00;;;10.07;;
19617;SDS011;9956;51.006;13.670;2023-05-29T01:45:43;11.10;;;9.00;;
19617;SDS011;9956;51.006;13.670;2023-05-29T01:50:43;9.93;;;7.50;;
19617;SDS011;9956;51.006;13.670;2023-05-29T01:55:46;10.05;;;7.10;;
19617;SDS011;9956;51.006;13.670;2023-05-29T02:00:46;10.98;;;7.07;;
19617;SDS011;9956;51.006;13.670;2023-05-29T02:05:48;7.35;;;6.03;;
19617;SDS011;9956;51.006;13.670;2023-05-29T02:10:48;6.68;;;5.90;;
19617;SDS011;9956;51.006;13.670;2023-05-29T02:15:49;7.32;;;6.22;;
19617;SDS011;9956;51.006;13.670;2023-05-29T02:20:50;7.15;;;5.60;;
19617;SDS011;9956;51.006;13.670;2023-05-29T02:25:55;7.05;;;5.80;;
19617;SDS011;9956;51.006;13.670;2023-05-29T02:30:56;6.80;;;5.30;;
19617;SDS011;9956;51.006;13.670;2023-05-29T02:35:57;7.72;;;5.85;;
19617;SDS011;9956;51.006;13.670;2023-05-29T02:40:58;6.80;;;5.78;;
19617;SDS011;9956;51.006;13.670;2023-05-29T02:45:59;5.95;;;5.45;;
19617;SDS011;9956;51.006;13.670;2023-05-29T02:51:00;7.70;;;5.10;;
19617;SDS011;9956;51.006;13.670;2023-05-29T02:56:00;6.13;;;4.72;;
19617;SDS011;9956;51.006;13.670;2023-05-29T03:01:02;6.65;;;4.32;;
19617;SDS011;9956;51.006;13.670;2023-05-29T03:06:02;6.38;;;4.90;;
19617;SDS011;9956;51.006;13.670;2023-05-29T03:11:03;6.28;;;4.28;;
19617;SDS011;9956;51.006;13.670;2023-05-29T03:16:03;5.30;;;4.75;;
19617;SDS011;9956;51.006;13.670;2023-05-29T03:21:04;7.28;;;4.90;;
19617;SDS011;9956;51.006;13.670;2023-05-29T03:26:07;6.60;;;4.80;;
19617;SDS011;9956;51.006;13.670;2023-05-29T03:31:09;6.22;;;4.47;;
19617;SDS011;9956;51.006;13.670;2023-05-29T03:36:09;5.68;;;4.30;;
19617;SDS011;9956;51.006;13.670;2023-05-29T03:41:11;5.40;;;4.38;;
19617;SDS011;9956;51.006;13.670;2023-05-29T03:46:12;7.60;;;4.03;;
19617;SDS011;9956;51.006;13.670;2023-05-29T03:51:12;6.55;;;4.30;;
19617;SDS011;9956;51.006;13.670;2023-05-29T03:56:14;6.13;;;4.22;;
19617;SDS011;9956;51.006;13.670;2023-05-29T04:01:14;5.72;;;4.60;;
19617;SDS011;9956;51.006;13.670;2023-05-29T04:06:15;8.70;;;4.97;;
19617;SDS011;9956;51.006;13.670;2023-05-29T04:11:16;8.40;;;4.70;;
19617;SDS011;9956;51.006;13.670;2023-05-29T04:16:16;5.28;;;4.22;;
19617;SDS011;9956;51.006;13.670;2023-05-29T04:21:17;5.25;;;4.05;;
19617;SDS011;9956;51.006;13.670;2023-05-29T04:26:18;7.75;;;3.97;;
19617;SDS011;9956;51.006;13.670;2023-05-29T04:31:20;8.00;;;4.82;;
19617;SDS011;9956;51.006;13.670;2023-05-29T04:36:23;4.85;;;3.70;;
19617;SDS011;9956;51.006;13.670;2023-05-29T04:41:26;5.10;;;4.60;;
19617;SDS011;9956;51.006;13.670;2023-05-29T04:46:32;5.60;;;4.05;;
19617;SDS011;9956;51.006;13.670;2023-05-29T04:51:34;5.97;;;4.25;;
19617;SDS011;9956;51.006;13.670;2023-05-29T04:56:36;10.32;;;5.10;;
19617;SDS011;9956;51.006;13.670;2023-05-29T05:01:37;7.85;;;4.60;;
19617;SDS011;9956;51.006;13.670;2023-05-29T05:06:38;4.15;;;3.75;;
19617;SDS011;9956;51.006;13.670;2023-05-29T05:11:40;5.88;;;3.78;;
19617;SDS011;9956;51.006;13.670;2023-05-29T05:16:41;5.90;;;4.40;;
19617;SDS011;9956;51.006;13.670;2023-05-29T05:21:42;5.20;;;4.20;;
19617;SDS011;9956;51.006;13.670;2023-05-29T05:26:43;3.42;;;3.08;;
19617;SDS011;9956;51.006;13.670;2023-05-29T05:31:44;6.18;;;3.92;;
19617;SDS011;9956;51.006;13.670;2023-05-29T05:36:44;5.38;;;3.40;;
19617;SDS011;9956;51.006;13.670;2023-05-29T05:41:48;4.53;;;3.40;;
19617;SDS011;9956;51.006;13.670;2023-05-29T05:46:56;3.88;;;3.08;;
19617;SDS011;9956;51.006;13.670;2023-05-29T05:51:57;5.00;;;3.10;;
19617;SDS011;9956;51.006;13.670;2023-05-29T05:56:58;3.45;;;2.92;;
19617;SDS011;9956;51.006;13.670;2023-05-29T06:01:59;6.00;;;4.10;;
19617;SDS011;9956;51.006;13.670;2023-05-29T06:07:02;4.85;;;3.67;;
19617;SDS011;9956;51.006;13.670;2023-05-29T06:12:03;3.70;;;3.40;;
19617;SDS011;9956;51.006;13.670;2023-05-29T06:17:05;6.00;;;3.63;;
19617;SDS011;9956;51.006;13.670;2023-05-29T06:22:06;5.50;;;4.28;;
19617;SDS011;9956;51.006;13.670;2023-05-29T06:27:09;5.22;;;4.72;;
19617;SDS011;9956;51.006;13.670;2023-05-29T06:32:13;5.88;;;4.30;;
19617;SDS011;9956;51.006;13.670;2023-05-29T06:37:13;9.27;;;5.15;;
19617;SDS011;9956;51.006;13.670;2023-05-29T06:42:14;6.45;;;4.22;;
19617;SDS011;9956;51.006;13.670;2023-05-29T06:47:17;7.18;;;4.85;;
19617;SDS011;9956;51.006;13.670;2023-05-29T06:52:18;5.85;;;3.70;;
19617;SDS011;9956;51.006;13.670;2023-05-29T06:57:39;5.57;;;3.67;;
19617;SDS011;9956;51.006;13.670;2023-05-29T07:02:41;4.03;;;3.00;;
19617;SDS011;9956;51.006;13.670;2023-05-29T07:07:42;5.13;;;3.67;;
19617;SDS011;9956;51.006;13.670;2023-05-29T07:12:45;3.72;;;3.28;;
19617;SDS011;9956;51.006;13.670;2023-05-29T07:17:45;7.10;;;3.72;;
19617;SDS011;9956;51.006;13.670;2023-05-29T07:22:52;4.63;;;3.47;;
19617;SDS011;9956;51.006;13.670;2023-05-29T07:27:53;5.20;;;3.63;;
19617;SDS011;9956;51.006;13.670;2023-05-29T07:32:53;4.43;;;3.30;;
19617;SDS011;9956;51.006;13.670;2023-05-29T07:37:54;4.63;;;3.30;;
19617;SDS011;9956;51.006;13.670;2023-05-29T07:42:56;5.68;;;3.40;;
19617;SDS011;9956;51.006;13.670;2023-05-29T07:47:59;2.63;;;2.28;;
19617;SDS011;9956;51.006;13.670;2023-05-29T07:53:02;4.13;;;3.20;;
19617;SDS011;9956;51.006;13.670;2023-05-29T07:58:03;2.97;;;2.67;;
19617;SDS011;9956;51.006;13.670;2023-05-29T08:03:04;5.30;;;3.20;;
19617;SDS011;9956;51.006;13.670;2023-05-29T08:08:05;7.00;;;3.15;;
19617;SDS011;9956;51.006;13.670;2023-05-29T08:13:07;7.95;;;3.60;;
19617;SDS011;9956;51.006;13.670;2023-05-29T08:18:09;5.05;;;3.35;;
19617;SDS011;9956;51.006;13.670;2023-05-29T08:23:10;4.80;;;3.30;;
19617;SDS011;9956;51.006;13.670;2023-05-29T08:28:11;4.18;;;3.78;;
19617;SDS011;9956;51.006;13.670;2023-05-29T08:33:12;4.78;;;3.40;;
19617;SDS011;9956;51.006;13.670;2023-05-29T08:38:12;7.85;;;4.10;;
19617;SDS011;9956;51.006;13.670;2023-05-29T08:43:18;6.55;;;4.28;;
19617;SDS011;9956;51.006;13.670;2023-05-29T08:48:24;4.57;;;4.00;;
19617;SDS011;9956;51.006;13.670;2023-05-29T08:53:25;4.20;;;3.80;;
19617;SDS011;9956;51.006;13.670;2023-05-29T08:58:26;6.90;;;3.97;;
19617;SDS011;9956;51.006;13.670;2023-05-29T09:03:26;4.72;;;3.70;;
19617;SDS011;9956;51.006;13.670;2023-05-29T09:08:27;4.82;;;3.70;;
19617;SDS011;9956;51.006;13.670;2023-05-29T09:13:28;6.00;;;3.47;;
19617;SDS011;9956;51.006;13.670;2023-05-29T09:18:29;6.37;;;3.57;;
19617;SDS011;9956;51.006;13.670;2023-05-29T09:23:31;5.72;;;3.28;;
19617;SDS011;9956;51.006;13.670;2023-05-29T09:28:31;3.55;;;3.25;;
19617;SDS011;9956;51.006;13.670;2023-05-29T09:33:32;4.70;;;3.05;;
19617;SDS011;9956;51.006;13.670;2023-05-29T09:38:33;4.50;;;3.03;;
19617;SDS011;9956;51.006;13.670;2023-05-29T09:43:33;4.40;;;2.87;;
19617;SDS011;9956;51.006;13.670;2023-05-29T09:48:34;3.78;;;3.47;;
19617;SDS011;9956;51.006;13.670;2023-05-29T09:53:35;3.70;;;3.08;;
19617;SDS011;9956;51.006;13.670;2023-05-29T09:58:43;3.85;;;3.28;;
19617;SDS011;9956;51.006;13.670;2023-05-29T10:03:47;3.78;;;2.90;;
19617;SDS011;9956;51.006;13.670;2023-05-29T10:08:48;5.30;;;3.38;;
19617;SDS011;9956;51.006;13.670;2023-05-29T10:13:53;3.83;;;2.78;;
19617;SDS011;9956;51.006;13.670;2023-05-29T10:18:55;3.40;;;3.10;;
19617;SDS011;9956;51.006;13.670;2023-05-29T10:23:56;2.83;;;2.63;;
19617;SDS011;9956;51.006;13.670;2023-05-29T10:29:13;4.63;;;2.90;;
19617;SDS011;9956;51.006;13.670;2023-05-29T10:39:48;5.57;;;2.90;;
19617;SDS011;9956;51.006;13.670;2023-05-29T10:44:48;5.30;;;3.20;;
19617;SDS011;9956;51.006;13.670;2023-05-29T10:49:49;3.63;;;2.67;;
19617;SDS011;9956;51.006;13.670;2023-05-29T10:54:52;4.28;;;3.13;;
19617;SDS011;9956;51.006;13.670;2023-05-29T11:00:05;3.08;;;2.78;;
19617;SDS011;9956;51.006;13.670;2023-05-29T11:05:19;4.70;;;3.08;;
19617;SDS011;9956;51.006;13.670;2023-05-29T11:15:41;4.20;;;2.97;;
19617;SDS011;9956;51.006;13.670;2023-05-29T11:20:52;6.60;;;3.30;;
19617;SDS011;9956;51.006;13.670;2023-05-29T11:25:53;3.63;;;2.65;;
19617;SDS011;9956;51.006;13.670;2023-05-29T11:30:54;3.72;;;2.95;;
19617;SDS011;9956;51.006;13.670;2023-05-29T11:35:58;5.57;;;3.38;;
19617;SDS011;9956;51.006;13.670;2023-05-29T11:41:01;4.53;;;3.30;;
19617;SDS011;9956;51.006;13.670;2023-05-29T11:46:02;6.60;;;3.13;;
19617;SDS011;9956;51.006;13.670;2023-05-29T11:51:03;5.43;;;3.42;;
19617;SDS011;9956;51.006;13.670;2023-05-29T11:56:07;5.10;;;3.30;;
19617;SDS011;9956;51.006;13.670;2023-05-29T12:01:08;5.03;;;3.13;;
19617;SDS011;9956;51.006;13.670;2023-05-29T12:06:09;6.25;;;3.22;;
19617;SDS011;9956;51.006;13.670;2023-05-29T12:11:10;3.60;;;3.00;;
19617;SDS011;9956;51.006;13.670;2023-05-29T12:16:11;6.60;;;3.40;;
19617;SDS011;9956;51.006;13.670;2023-05-29T12:21:11;4.35;;;3.45;;
19617;SDS011;9956;51.006;13.670;2023-05-29T12:26:12;4.45;;;2.75;;
19617;SDS011;9956;51.006;13.670;2023-05-29T12:31:13;3.78;;;3.10;;
19617;SDS011;9956;51.006;13.670;2023-05-29T12:36:14;5.53;;;3.08;;
19617;SDS011;9956;51.006;13.670;2023-05-29T12:46:24;5.40;;;2.85;;
19617;SDS011;9956;51.006;13.670;2023-05-29T12:51:26;4.95;;;3.05;;
19617;SDS011;9956;51.006;13.670;2023-05-29T12:56:27;3.55;;;2.75;;
19617;SDS011;9956;51.006;13.670;2023-05-29T13:01:27;5.00;;;3.00;;
19617;SDS011;9956;51.006;13.670;2023-05-29T13:06:29;6.72;;;3.35;;
19617;SDS011;9956;51.006;13.670;2023-05-29T13:11:29;4.65;;;3.50;;
19617;SDS011;9956;51.006;13.670;2023-05-29T13:16:30;4.32;;;3.22;;
19617;SDS011;9956;51.006;13.670;2023-05-29T13:21:30;6.47;;;2.80;;
19617;SDS011;9956;51.006;13.670;2023-05-29T13:26:31;4.72;;;3.55;;
19617;SDS011;9956;51.006;13.670;2023-05-29T13:31:31;4.05;;;3.25;;
19617;SDS011;9956;51.006;13.670;2023-05-29T13:36:31;5.43;;;2.97;;
19617;SDS011;9956;51.006;13.670;2023-05-29T13:41:32;5.22;;;3.00;;
19617;SDS011;9956;51.006;13.670;2023-05-29T13:46:32;5.07;;;2.78;;
19617;SDS011;9956;51.006;13.670;2023-05-29T13:51:33;3.55;;;2.83;;
19617;SDS011;9956;51.006;13.670;2023-05-29T13:56:35;8.23;;;3.63;;
19617;SDS011;9956;51.006;13.670;2023-05-29T14:01:36;3.63;;;3.30;;
19617;SDS011;9956;51.006;13.670;2023-05-29T14:06:36;4.53;;;3.15;;
19617;SDS011;9956;51.006;13.670;2023-05-29T14:11:40;7.32;;;3.47;;
19617;SDS011;9956;51.006;13.670;2023-05-29T14:16:40;4.22;;;3.28;;
19617;SDS011;9956;51.006;13.670;2023-05-29T14:21:41;4.43;;;3.90;;
19617;SDS011;9956;51.006;13.670;2023-05-29T14:26:41;4.43;;;3.40;;
19617;SDS011;9956;51.006;13.670;2023-05-29T14:31:43;5.93;;;3.55;;
19617;SDS011;9956;51.006;13.670;2023-05-29T14:36:47;4.00;;;2.80;;
19617;SDS011;9956;51.006;13.670;2023-05-29T14:41:47;5.05;;;3.10;;
19617;SDS011;9956;51.006;13.670;2023-05-29T14:46:48;3.53;;;3.22;;
19617;SDS011;9956;51.006;13.670;2023-05-29T14:51:48;4.35;;;3.17;;
19617;SDS011;9956;51.006;13.670;2023-05-29T14:56:49;5.22;;;3.35;;
19617;SDS011;9956;51.006;13.670;2023-05-29T15:01:49;6.18;;;3.42;;
19617;SDS011;9956;51.006;13.670;2023-05-29T15:06:50;5.55;;;3.35;;
19617;SDS011;9956;51.006;13.670;2023-05-29T15:11:50;4.63;;;3.17;;
19617;SDS011;9956;51.006;13.670;2023-05-29T15:16:51;5.63;;;3.70;;
19617;SDS011;9956;51.006;13.670;2023-05-29T15:21:51;4.32;;;3.20;;
19617;SDS011;9956;51.006;13.670;2023-05-29T15:26:52;4.68;;;3.45;;
19617;SDS011;9956;51.006;13.670;2023-05-29T15:31:52;5.30;;;4.25;;
19617;SDS011;9956;51.006;13.670;2023-05-29T15:36:53;6.97;;;3.83;;
19617;SDS011;9956;51.006;13.670;2023-05-29T15:41:53;7.10;;;4.80;;
19617;SDS011;9956;51.006;13.670;2023-05-29T15:46:54;4.88;;;3.72;;
19617;SDS011;9956;51.006;13.670;2023-05-29T15:51:54;5.78;;;3.50;;
19617;SDS011;9956;51.006;13.670;2023-05-29T15:56:55;4.82;;;3.80;;
19617;SDS011;9956;51.006;13.670;2023-05-29T16:01:56;5.68;;;4.00;;
19617;SDS011;9956;51.006;13.670;2023-05-29T16:06:56;3.80;;;3.47;;
19617;SDS011;9956;51.006;13.670;2023-05-29T16:11:57;5.63;;;4.20;;
19617;SDS011;9956;51.006;13.670;2023-05-29T16:16:57;4.72;;;3.50;;
19617;SDS011;9956;51.006;13.670;2023-05-29T16:21:58;4.03;;;3.45;;
19617;SDS011;9956;51.006;13.670;2023-05-29T16:27:01;3.60;;;3.15;;
19617;SDS011;9956;51.006;13.670;2023-05-29T16:32:08;6.82;;;3.92;;
19617;SDS011;9956;51.006;13.670;2023-05-29T16:37:09;5.18;;;4.18;;
19617;SDS011;9956;51.006;13.670;2023-05-29T16:42:09;5.53;;;3.40;;
19617;SDS011;9956;51.006;13.670;2023-05-29T16:47:11;5.45;;;3.47;;
19617;SDS011;9956;51.006;13.670;2023-05-29T16:52:12;3.90;;;3.47;;
19617;SDS011;9956;51.006;13.670;2023-05-29T16:57:14;5.60;;;3.53;;
19617;SDS011;9956;51.006;13.670;2023-05-29T17:02:15;4.88;;;2.97;;
19617;SDS011;9956;51.006;13.670;2023-05-29T17:07:15;4.47;;;3.30;;
19617;SDS011;9956;51.006;13.670;2023-05-29T17:12:16;4.93;;;3.90;;
19617;SDS011;9956;51.006;13.670;2023-05-29T17:17:16;7.93;;;6.30;;
19617;SDS011;9956;51.006;13.670;2023-05-29T17:22:23;4.30;;;3.85;;
19617;SDS011;9956;51.006;13.670;2023-05-29T17:27:23;5.60;;;3.63;;
19617;SDS011;9956;51.006;13.670;2023-05-29T17:32:24;5.90;;;4.13;;
19617;SDS011;9956;51.006;13.670;2023-05-29T17:37:24;6.00;;;4.63;;
19617;SDS011;9956;51.006;13.670;2023-05-29T17:42:25;5.22;;;3.65;;
19617;SDS011;9956;51.006;13.670;2023-05-29T17:47:28;4.53;;;3.92;;
19617;SDS011;9956;51.006;13.670;2023-05-29T17:52:29;4.40;;;3.42;;
19617;SDS011;9956;51.006;13.670;2023-05-29T17:57:29;3.97;;;3.20;;
19617;SDS011;9956;51.006;13.670;2023-05-29T18:02:29;3.88;;;3.30;;
19617;SDS011;9956;51.006;13.670;2023-05-29T18:07:30;5.65;;;3.90;;
19617;SDS011;9956;51.006;13.670;2023-05-29T18:12:30;4.47;;;3.17;;
19617;SDS011;9956;51.006;13.670;2023-05-29T18:17:32;4.63;;;3.42;;
19617;SDS011;9956;51.006;13.670;2023-05-29T18:22:33;5.07;;;4.55;;
19617;SDS011;9956;51.006;13.670;2023-05-29T18:27:33;4.35;;;3.95;;
19617;SDS011;9956;51.006;13.670;2023-05-29T18:32:36;4.43;;;3.63;;
19617;SDS011;9956;51.006;13.670;2023-05-29T18:37:37;4.65;;;3.40;;
19617;SDS011;9956;51.006;13.670;2023-05-29T18:42:38;4.60;;;3.05;;
19617;SDS011;9956;51.006;13.670;2023-05-29T18:47:38;4.25;;;3.80;;
19617;SDS011;9956;51.006;13.670;2023-05-29T18:52:38;4.30;;;3.42;;
19617;SDS011;9956;51.006;13.670;2023-05-29T18:57:40;5.50;;;3.47;;
19617;SDS011;9956;51.006;13.670;2023-05-29T19:02:48;4.72;;;3.72;;
19617;SDS011;9956;51.006;13.670;2023-05-29T19:07:53;4.18;;;3.30;;
19617;SDS011;9956;51.006;13.670;2023-05-29T19:12:54;4.85;;;3.45;;
19617;SDS011;9956;51.006;13.670;2023-05-29T19:17:54;4.95;;;3.17;;
19617;SDS011;9956;51.006;13.670;2023-05-29T19:22:55;5.80;;;3.38;;
19617;SDS011;9956;51.006;13.670;2023-05-29T19:27:55;5.35;;;3.60;;
19617;SDS011;9956;51.006;13.670;2023-05-29T19:32:56;4.60;;;3.33;;
19617;SDS011;9956;51.006;13.670;2023-05-29T19:37:56;5.93;;;3.53;;
19617;SDS011;9956;51.006;13.670;2023-05-29T19:43:00;6.30;;;3.88;;
19617;SDS011;9956;51.006;13.670;2023-05-29T19:48:00;7.10;;;3.92;;
19617;SDS011;9956;51.006;13.670;2023-05-29T19:53:01;5.57;;;3.80;;
19617;SDS011;9956;51.006;13.670;2023-05-29T19:58:03;6.03;;;3.72;;
19617;SDS011;9956;51.006;13.670;2023-05-29T20:03:14;4.25;;;3.58;;
19617;SDS011;9956;51.006;13.670;2023-05-29T20:08:15;6.05;;;3.92;;
19617;SDS011;9956;51.006;13.670;2023-05-29T20:13:16;6.15;;;4.20;;
19617;SDS011;9956;51.006;13.670;2023-05-29T20:18:16;7.28;;;3.70;;
19617;SDS011;9956;51.006;13.670;2023-05-29T20:23:16;8.38;;;4.05;;
19617;SDS011;9956;51.006;13.670;2023-05-29T20:28:17;6.85;;;3.80;;
19617;SDS011;9956;51.006;13.670;2023-05-29T20:33:18;4.97;;;3.85;;
19617;SDS011;9956;51.006;13.670;2023-05-29T20:38:21;5.03;;;4.15;;
19617;SDS011;9956;51.006;13.670;2023-05-29T20:43:22;7.35;;;4.32;;
19617;SDS011;9956;51.006;13.670;2023-05-29T20:48:22;8.75;;;6.20;;
19617;SDS011;9956;51.006;13.670;2023-05-29T20:53:23;7.75;;;5.47;;
19617;SDS011;9956;51.006;13.670;2023-05-29T20:58:24;7.80;;;6.10;;
19617;SDS011;9956;51.006;13.670;2023-05-29T21:03:24;14.88;;;7.75;;
19617;SDS011;9956;51.006;13.670;2023-05-29T21:08:41;6.45;;;4.78;;
19617;SDS011;9956;51.006;13.670;2023-05-29T21:13:42;7.93;;;5.07;;
19617;SDS011;9956;51.006;13.670;2023-05-29T21:18:42;8.25;;;5.45;;
19617;SDS011;9956;51.006;13.670;2023-05-29T21:23:43;7.07;;;4.45;;
19617;SDS011;9956;51.006;13.670;2023-05-29T21:28:43;6.25;;;3.75;;
19617;SDS011;9956;51.006;13.670;2023-05-29T21:33:45;4.72;;;3.33;;
19617;SDS011;9956;51.006;13.670;2023-05-29T21:38:48;6.28;;;4.03;;
19617;SDS011;9956;51.006;13.670;2023-05-29T21:43:51;5.03;;;3.80;;
19617;SDS011;9956;51.006;13.670;2023-05-29T21:48:53;7.30;;;3.80;;
19617;SDS011;9956;51.006;13.670;2023-05-29T21:53:53;7.43;;;3.50;;
19617;SDS011;9956;51.006;13.670;2023-05-29T21:58:54;5.53;;;3.45;;
19617;SDS011;9956;51.006;13.670;2023-05-29T22:03:54;5.30;;;3.50;;
19617;SDS011;9956;51.006;13.670;2023-05-29T22:08:54;5.63;;;3.25;;
19617;SDS011;9956;51.006;13.670;2023-05-29T22:13:55;3.35;;;3.00;;
19617;SDS011;9956;51.006;13.670;2023-05-29T22:18:55;4.65;;;3.13;;
19617;SDS011;9956;51.006;13.670;2023-05-29T22:23:56;6.00;;;3.15;;
19617;SDS011;9956;51.006;13.670;2023-05-29T22:28:57;6.05;;;2.95;;
19617;SDS011;9956;51.006;13.670;2023-05-29T22:33:58;4.20;;;2.90;;
19617;SDS011;9956;51.006;13.670;2023-05-29T22:38:58;5.38;;;2.85;;
19617;SDS011;9956;51.006;13.670;2023-05-29T22:43:59;5.63;;;2.72;;
19617;SDS011;9956;51.006;13.670;2023-05-29T22:48:59;3.60;;;2.63;;
19617;SDS011;9956;51.006;13.670;2023-05-29T22:54:04;4.20;;;2.90;;
19617;SDS011;9956;51.006;13.670;2023-05-29T22:59:05;5.35;;;2.80;;
19617;SDS011;9956;51.006;13.670;2023-05-29T23:04:06;4.47;;;2.40;;
19617;SDS011;9956;51.006;13.670;2023-05-29T23:09:07;6.57;;;2.67;;
19617;SDS011;9956;51.006;13.670;2023-05-29T23:14:07;6.72;;;2.97;;
19617;SDS011;9956;51.006;13.670;2023-05-29T23:19:08;5.60;;;2.63;;
19617;SDS011;9956;51.006;13.670;2023-05-29T23:24:08;5.93;;;2.83;;
19617;SDS011;9956;51.006;13.670;2023-05-29T23:29:10;4.18;;;3.08;;
19617;SDS011;9956;51.006;13.670;2023-05-29T23:34:12;6.30;;;3.42;;
19617;SDS011;9956;51.006;13.670;2023-05-29T23:39:15;5.20;;;2.88;;
19617;SDS011;9956;51.006;13.670;2023-05-29T23:44:16;6.68;;;3.40;;
19617;SDS011;9956;51.006;13.670;2023-05-29T23:49:16;4.50;;;2.90;;
19617;SDS011;9956;51.006;13.670;2023-05-29T23:54:16;6.40;;;3.40;;
19617;SDS011;9956;51.006;13.670;2023-05-29T23:59:17;5.13;;;3.20;;
